Accueil
METAR-TAF:

METAR-TAF

Aéroports :

New Haven, Connecticut, États-Unis

latitude: 41-15-50N, longitude: 072-53-14W, altitude: 4 m

Observation

Le bulletin a été fait il y a 28 minutes, à 18:53 UTC
Vent 17 kt de ouest/nord-ouest avec des rafales jusqu'à 28 kt
Température 9°C
Humidité 43%
Pression 993 hPa
Visibilité: 16.1 km
Nuages épars à une hauteur de 6000 ft

METAR: KHVN 101853Z 29017G28KT 10SM SCT060 09/M03 A2932 RMK AO2 PK WND 30031/1817 SLP930 T00941033

Heure: 15:21 (19:21 UTC)


TAF: absent

Observations et prévisions météorologiques de plus de 4000 aéroports (messages METAR et TAF).

Les stations disponibles sont représentées par des disques jaunes et rouges sur la carte.

Passer la souris dessus pour voir le nom de la station.

Cliquer dessus pour voir les observations et prévisions météorologiques.

Pour changer de carte: cliquez sur les boutons verts avec une croix noire pour zoomer, sur le bouton vert avec un tiret pour effectuer un zoom arrière, ou sur les flèches vertes pour les cartes adjacentes.


METAR-TAF: